Welcome to Northern Hawkes Bay. New Zealand.
PWS Header
      nz Flag



Hit Counter


W3C Valid W3C Valid logo


    Wairoa

Select any of the Stations below to visit their websites.










Historic Data from Weather Underground
Select the location of interest below. Wairoa is the default. Please have patience, this Data is slow to load in.
Northern Hawkes Bay Historical Data
Daily Summary for April 22, 2017 Units:  English    Metric   Both
« Previous Day
Next Day »
Daily Weekly Monthly Yearly Custom
  High: Low: Average:
Temperature: 69.6 °F 42.1 °F 52.9 °F
Dew Point: 54 °F 41.7 °F 47.8 °F
Humidity: 99% 54% 85%
Wind Speed: 6.9mph 0mph 2.2mph
Wind Gust: 10.7mph - -
Wind- - West
Pressure: 30.4 in 30.4 in -
Precipitation: 0 in    
Historical Graphs
 
 
Tabular Data for April 22, 2017
Time Temperature Dew Point Pressure Wind Wind Speed Wind Gust Humidity Rainfall Rate (Hourly) solar
00:02 46 °F 45.1 °F 30.4 in North 2.2 mph 5.4 mph 97% 0 in 0 W/m2
00:07 46.2 °F 45.3 °F 30.4 in NNW 0.7 mph 4.5 mph 97% 0 in 0 W/m2
00:12 46.2 °F 45.3 °F 30.4 in NNW 3.8 mph 6 mph 97% 0 in 0 W/m2
00:17 46.4 °F 46 °F 30.4 in North 3.8 mph 7.6 mph 99% 0 in 0 W/m2
00:22 46.4 °F 46 °F 30.4 in North 4.5 mph 7.6 mph 99% 0 in 0 W/m2
00:27 46.2 °F 45.3 °F 30.4 in North 4.5 mph 7.6 mph 97% 0 in 0 W/m2
00:32 46.2 °F 45.3 °F 30.4 in North 3.1 mph 7.6 mph 97% 0 in 0 W/m2
00:37 46.2 °F 45.3 °F 30.4 in NNW 3.8 mph 7.6 mph 97% 0 in 0 W/m2
00:42 46.2 °F 45.3 °F 30.4 in North 5.4 mph 7.6 mph 97% 0 in 0 W/m2
00:47 46.2 °F 45.3 °F 30.4 in North 1.6 mph 7.6 mph 97% 0 in 0 W/m2
00:52 46 °F 45.1 °F 30.4 in North 2.2 mph 6 mph 97% 0 in 0 W/m2
00:57 46 °F 45.1 °F 30.4 in North 3.8 mph 5.4 mph 97% 0 in 0 W/m2
01:02 46 °F 45.1 °F 30.4 in NNW 2.2 mph 6 mph 97% 0 in 0 W/m2
01:07 45.9 °F 45.1 °F 30.4 in NNW 4.5 mph 6.9 mph 97% 0 in 0 W/m2
01:12 45.7 °F 45 °F 30.4 in NNW 2.2 mph 6.9 mph 97% 0 in 0 W/m2
01:17 45.7 °F 45 °F 30.4 in NNW 1.6 mph 6 mph 97% 0 in 0 W/m2
01:22 45.3 °F 44.4 °F 30.4 in Calm   5.4 mph 97% 0 in 0 W/m2
01:27 45.1 °F 44.2 °F 30.4 in Calm   2.2 mph 97% 0 in 0 W/m2
01:32 45 °F 44.2 °F 30.4 in Calm     97% 0 in 0 W/m2
01:37 45 °F 44.2 °F 30.4 in Calm   2.2 mph 97% 0 in 0 W/m2
01:42 44.8 °F 44.1 °F 30.4 in NW 2.2 mph 4.5 mph 97% 0 in 0 W/m2
01:47 44.8 °F 44.1 °F 30.4 in NW 3.1 mph 5.4 mph 97% 0 in 0 W/m2
01:52 44.8 °F 44.1 °F 30.4 in NW 2.2 mph 6.9 mph 97% 0 in 0 W/m2
01:57 44.6 °F 43.9 °F 30.4 in NNW 1.6 mph 6.9 mph 97% 0 in 0 W/m2
02:02 44.6 °F 43.9 °F 30.4 in NW 2.2 mph 5.4 mph 97% 0 in 0 W/m2
02:12 44.6 °F 43.9 °F 30.4 in NNW 1.6 mph 4.5 mph 97% 0 in 0 W/m2
02:17 44.6 °F 43.9 °F 30.4 in NNW 1.6 mph 4.5 mph 97% 0 in 0 W/m2
02:22 44.6 °F 43.9 °F 30.4 in NNW 3.1 mph 6 mph 97% 0 in 0 W/m2
02:27 44.6 °F 43.9 °F 30.4 in NNW 4.5 mph 6 mph 97% 0 in 0 W/m2
02:32 44.2 °F 43.7 °F 30.4 in NNW 4.5 mph 6 mph 98% 0 in 0 W/m2
02:37 44.2 °F 43.7 °F 30.4 in NNW 3.8 mph 6 mph 98% 0 in 0 W/m2
02:42 44.2 °F 43.7 °F 30.4 in NNW 3.8 mph 6 mph 98% 0 in 0 W/m2
02:47 44.1 °F 43.5 °F 30.4 in NW 2.2 mph 5.4 mph 98% 0 in 0 W/m2
02:52 44.1 °F 43.5 °F 30.4 in NW 3.8 mph 6 mph 98% 0 in 0 W/m2
02:57 44.1 °F 43.5 °F 30.4 in NW 3.8 mph 7.6 mph 98% 0 in 0 W/m2
03:02 44.1 °F 43.5 °F 30.4 in NW 3.1 mph 7.6 mph 98% 0 in 0 W/m2
03:07 44.1 °F 43.5 °F 30.4 in NNW 3.1 mph 6.9 mph 98% 0 in 0 W/m2
03:12 44.1 °F 43.5 °F 30.4 in NW 3.1 mph 6.9 mph 98% 0 in 0 W/m2
03:17 43.9 °F 43.3 °F 30.4 in NNW 1.6 mph 6.9 mph 98% 0 in 0 W/m2
03:22 43.7 °F 43.2 °F 30.4 in NNW 3.1 mph 4.5 mph 98% 0 in 0 W/m2
03:27 43.9 °F 43.3 °F 30.4 in NNW 2.2 mph 6.9 mph 98% 0 in 0 W/m2
03:32 43.7 °F 43.2 °F 30.4 in NNW 2.2 mph 6.9 mph 98% 0 in 0 W/m2
03:37 43.5 °F 43 °F 30.4 in NNW 2.2 mph 4.5 mph 98% 0 in 0 W/m2
03:42 43.5 °F 43 °F 30.4 in NNW 3.1 mph 4.5 mph 98% 0 in 0 W/m2
03:47 43.3 °F 42.8 °F 30.4 in NNW 3.1 mph 5.4 mph 98% 0 in 0 W/m2
03:53 43.3 °F 42.8 °F 30.4 in NW 1.6 mph 5.4 mph 98% 0 in 0 W/m2
03:58 43.3 °F 42.8 °F 30.4 in WNW 4.5 mph 6.9 mph 98% 0 in 0 W/m2
04:03 43.3 °F 42.8 °F 30.4 in NW 4.5 mph 6.9 mph 98% 0 in 0 W/m2
04:08 43.3 °F 42.8 °F 30.4 in NW 5.4 mph 8.3 mph 98% 0 in 0 W/m2
04:13 43.5 °F 43 °F 30.4 in NNW 4.5 mph 8.3 mph 98% 0 in 0 W/m2
04:18 43.5 °F 43 °F 30.4 in NW 6 mph 8.3 mph 98% 0 in 0 W/m2
04:23 43.7 °F 43.2 °F 30.4 in NW 3.1 mph 8.3 mph 98% 0 in 0 W/m2
04:28 43.5 °F 43 °F 30.4 in NNW 3.1 mph 7.6 mph 98% 0 in 0 W/m2
04:33 43.3 °F 42.8 °F 30.4 in NNW 3.8 mph 6 mph 98% 0 in 0 W/m2
04:38 43.3 °F 42.8 °F 30.4 in NNW 3.8 mph 6.9 mph 98% 0 in 0 W/m2
04:43 43.5 °F 43 °F 30.4 in NNW 3.8 mph 6.9 mph 98% 0 in 0 W/m2
04:48 43.5 °F 43 °F 30.4 in NW 2.2 mph 7.6 mph 98% 0 in 0 W/m2
04:53 43.3 °F 42.8 °F 30.4 in NW 3.1 mph 7.6 mph 98% 0 in 0 W/m2
04:58 43.2 °F 42.6 °F 30.4 in NW 3.1 mph 5.4 mph 98% 0 in 0 W/m2
05:03 42.8 °F 42.3 °F 30.4 in NW 3.1 mph 5.4 mph 98% 0 in 0 W/m2
05:08 42.6 °F 42.4 °F 30.4 in Calm   5.4 mph 99% 0 in 0 W/m2
05:13 42.4 °F 42.3 °F 30.4 in NW 0.7 mph 5.4 mph 99% 0 in 0 W/m2
05:18 42.4 °F 42.3 °F 30.4 in NW 3.1 mph 3.8 mph 99% 0 in 0 W/m2
05:23 42.4 °F 42.3 °F 30.4 in NNW 2.2 mph 4.5 mph 99% 0 in 0 W/m2
05:28 42.3 °F 42.1 °F 30.4 in NNW 1.6 mph 4.5 mph 99% 0 in 0 W/m2
05:33 42.3 °F 42.1 °F 30.4 in NNW 2.2 mph 4.5 mph 99% 0 in 0 W/m2
05:38 42.3 °F 42.1 °F 30.4 in NNW 3.1 mph 5.4 mph 99% 0 in 0 W/m2
05:43 42.3 °F 42.1 °F 30.4 in NW 3.1 mph 5.4 mph 99% 0 in 0 W/m2
05:48 42.3 °F 42.1 °F 30.4 in NW 2.2 mph 5.4 mph 99% 0 in 0 W/m2
05:53 42.3 °F 42.1 °F 30.4 in NNW 1.6 mph 4.5 mph 99% 0 in 0 W/m2
05:58 42.3 °F 42.1 °F 30.4 in NNW 3.1 mph 4.5 mph 99% 0 in 0 W/m2
06:03 42.3 °F 42.1 °F 30.4 in NNW 3.1 mph 5.4 mph 99% 0 in 0 W/m2
06:08 42.3 °F 42.1 °F 30.4 in NNW 3.8 mph 5.4 mph 99% 0 in 0 W/m2
06:13 42.3 °F 42.1 °F 30.4 in NNW 3.1 mph 6 mph 99% 0 in 0 W/m2
06:18 42.3 °F 42.1 °F 30.4 in NW 4.5 mph 6.9 mph 99% 0 in 0 W/m2
06:23 42.1 °F 41.7 °F 30.4 in NW 2.2 mph 6.9 mph 99% 0 in 0 W/m2
06:28 42.1 °F 41.7 °F 30.4 in NW 3.8 mph 6 mph 99% 0 in 0 W/m2
06:33 42.3 °F 42.1 °F 30.4 in NW 3.8 mph 6.9 mph 99% 0 in 0 W/m2
06:38 42.3 °F 42.1 °F 30.4 in NW 3.8 mph 6.9 mph 99% 0 in 0 W/m2
06:43 42.1 °F 41.7 °F 30.4 in NNW 4.5 mph 6.9 mph 99% 0 in 3 W/m2
06:48 42.1 °F 41.7 °F 30.4 in NNW 3.8 mph 7.6 mph 99% 0 in 5 W/m2
06:53 42.1 °F 41.7 °F 30.4 in NNW 3.1 mph 7.6 mph 99% 0 in 8 W/m2
07:03 42.1 °F 41.7 °F 30.4 in NNW 5.4 mph 7.6 mph 99% 0 in 14 W/m2
07:19 43.3 °F 42.8 °F 30.4 in NW 4.5 mph 6.9 mph 98% 0 in 83 W/m2
07:24 43.7 °F 43.2 °F 30.4 in NNW 5.4 mph 6.9 mph 98% 0 in 95 W/m2
07:29 44.1 °F 43.5 °F 30.4 in NNW 3.1 mph 6.9 mph 98% 0 in 109 W/m2
07:34 44.4 °F 43.9 °F 30.4 in NNW 4.5 mph 6.9 mph 98% 0 in 123 W/m2
07:39 45 °F 44.2 °F 30.4 in NNW 4.5 mph 7.6 mph 97% 0 in 135 W/m2
07:44 45 °F 44.2 °F 30.4 in NW 4.5 mph 7.6 mph 97% 0 in 145 W/m2
07:49 45.5 °F 44.8 °F 30.4 in NW 6.9 mph 9.2 mph 97% 0 in 156 W/m2
07:54 45.9 °F 45.1 °F 30.4 in NNW 4.5 mph 9.2 mph 97% 0 in 165 W/m2
07:59 46 °F 44.8 °F 30.4 in NW 4.5 mph 9.2 mph 95% 0 in 185 W/m2
08:05 46.6 °F 45 °F 30.4 in NW 3.8 mph 8.3 mph 94% 0 in 200 W/m2
08:09 46.8 °F 44.8 °F 30.4 in NNW 3.8 mph 7.6 mph 93% 0 in 214 W/m2
08:14 47.3 °F 45.1 °F 30.4 in NW 2.2 mph 7.6 mph 92% 0 in 231 W/m2
08:19 47.8 °F 45.3 °F 30.4 in NW 3.8 mph 6.9 mph 91% 0 in 247 W/m2
08:24 48.4 °F 45.3 °F 30.4 in NNW 4.5 mph 7.6 mph 89% 0 in 262 W/m2
08:29 48.9 °F 45.5 °F 30.4 in NW 4.5 mph 7.6 mph 88% 0 in 273 W/m2
08:34 49.5 °F 46 °F 30.4 in NNW 5.4 mph 7.6 mph 88% 0 in 284 W/m2
08:39 49.6 °F 45.7 °F 30.4 in NNW 6 mph 10.7 mph 86% 0 in 294 W/m2
08:50 50.5 °F 46.2 °F 30.4 in NNW 1.6 mph 9.2 mph 85% 0 in 312 W/m2
08:54 51.1 °F 46.8 °F 30.4 in NW 4.5 mph 8.3 mph 85% 0 in 321 W/m2
08:59 51.6 °F 46.9 °F 30.4 in NW 4.5 mph 7.6 mph 84% 0 in 327 W/m2
09:04 52 °F 46.9 °F 30.4 in NNW 3.1 mph 7.6 mph 83% 0 in 335 W/m2
09:09 52.2 °F 46.8 °F 30.4 in NNW 5.4 mph 7.6 mph 82% 0 in 341 W/m2
09:14 52.7 °F 47.5 °F 30.4 in North 4.5 mph 7.6 mph 82% 0 in 346 W/m2
09:19 53.1 °F 47.7 °F 30.4 in NNW 6 mph 9.8 mph 82% 0 in 349 W/m2
09:24 53.1 °F 47.5 °F 30.4 in NNW 4.5 mph 9.8 mph 81% 0 in 350 W/m2
09:29 53.2 °F 47.7 °F 30.4 in NNW 3.1 mph 8.3 mph 81% 0 in 348 W/m2
09:39 55 °F 48.9 °F 30.4 in North 3.1 mph 6.9 mph 80% 0 in 81 W/m2
09:44 55.4 °F 48.4 °F 30.4 in NNW 1.6 mph 7.6 mph 77% 0 in 71 W/m2
09:49 56.5 °F 49.6 °F 30.4 in NW 3.1 mph 7.6 mph 78% 0 in 64 W/m2
09:54 56.1 °F 48.7 °F 30.4 in NNW 5.4 mph 6.9 mph 76% 0 in 61 W/m2
09:59 56.3 °F 49.5 °F 30.4 in NNW 4.5 mph 6.9 mph 78% 0 in 60 W/m2
10:04 56.8 °F 49.6 °F 30.4 in NNW 3.8 mph 6.9 mph 77% 0 in 60 W/m2
10:09 57 °F 49.8 °F 30.4 in NNW 3.8 mph 6 mph 77% 0 in 60 W/m2
10:14 57.7 °F 50.2 °F 30.4 in North 3.8 mph 6 mph 76% 0 in 63 W/m2
10:19 59.2 °F 50.9 °F 30.4 in NW 1.6 mph 5.4 mph 74% 0 in 65 W/m2
10:24 59.2 °F 50.2 °F 30.4 in NW 2.2 mph 6.9 mph 72% 0 in 100 W/m2
10:29 59.2 °F 50.5 °F 30.4 in NW 2.2 mph 6.9 mph 73% 0 in 296 W/m2
10:34 60.3 °F 51.6 °F 30.4 in NNW 1.6 mph 5.4 mph 73% 0 in 84 W/m2
10:39 61 °F 51.1 °F 30.4 in Calm   5.4 mph 70% 0 in 402 W/m2
10:44 61.5 °F 51.3 °F 30.4 in NNW 1.6 mph 5.4 mph 69% 0 in 411 W/m2
10:49 61.3 °F 51.4 °F 30.4 in NW 2.2 mph 5.4 mph 70% 0 in 420 W/m2
10:54 61.5 °F 52 °F 30.4 in Calm   4.5 mph 71% 0 in 430 W/m2
11:13 64 °F 52.5 °F 30.4 in Calm   1.6 mph 66% 0 in 450 W/m2
11:18 65.7 °F 54 °F 30.4 in Calm   3.1 mph 66% 0 in 449 W/m2
11:23 64.4 °F 52.3 °F 30.4 in ESE 1.6 mph 4.5 mph 65% 0 in 448 W/m2
11:33 63.3 °F 51.4 °F 30.4 in SE 0.7 mph 4.5 mph 65% 0 in 416 W/m2
11:38 64.2 °F 51.8 °F 30.4 in Calm   4.5 mph 64% 0 in 454 W/m2
11:43 65.5 °F 53.1 °F 30.4 in SSE 4.5 mph 6.9 mph 64% 0 in 459 W/m2
11:48 63.9 °F 52 °F 30.4 in South 3.1 mph 6.9 mph 65% 0 in 456 W/m2
11:53 63.7 °F 52.2 °F 30.4 in South 6 mph 9.2 mph 66% 0 in 452 W/m2
11:58 63.5 °F 52.3 °F 30.4 in South 4.5 mph 9.2 mph 67% 0 in 452 W/m2
12:03 63.1 °F 52 °F 30.4 in South 6 mph 8.3 mph 67% 0 in 450 W/m2
12:08 62.6 °F 52 °F 30.4 in South 3.8 mph 8.3 mph 68% 0 in 446 W/m2
12:13 63 °F 52.3 °F 30.4 in South 3.8 mph 7.6 mph 68% 0 in 444 W/m2
12:18 63.3 °F 52.2 °F 30.4 in South 5.4 mph 7.6 mph 67% 0 in 443 W/m2
12:23 63.1 °F 52.9 °F 30.4 in South 3.8 mph 7.6 mph 69% 0 in 438 W/m2
12:28 63.3 °F 52.5 °F 30.4 in South 4.5 mph 8.3 mph 68% 0 in 434 W/m2
12:33 63.7 °F 53.2 °F 30.4 in South 3.8 mph 8.3 mph 69% 0 in 431 W/m2
12:38 63.3 °F 52.2 °F 30.4 in South 4.5 mph 8.3 mph 67% 0 in 427 W/m2
12:43 63.9 °F 53.4 °F 30.4 in South 3.8 mph 8.3 mph 69% 0 in 423 W/m2
12:48 63.9 °F 52.7 °F 30.4 in South 4.5 mph 7.6 mph 67% 0 in 420 W/m2
12:53 63.9 °F 53.1 °F 30.4 in South 3.8 mph 8.3 mph 68% 0 in 412 W/m2
12:58 64.2 °F 53.4 °F 30.4 in South 6.9 mph 8.3 mph 68% 0 in 408 W/m2
13:03 64 °F 52.5 °F 30.4 in South 3.8 mph 7.6 mph 66% 0 in 395 W/m2
13:08 64.4 °F 52.3 °F 30.4 in South 3.8 mph 7.6 mph 65% 0 in 351 W/m2
13:13 64.6 °F 53.1 °F 30.4 in South 4.5 mph 6.9 mph 66% 0 in 369 W/m2
13:18 64.8 °F 52.7 °F 30.4 in South 3.1 mph 6 mph 65% 0 in 147 W/m2
13:23 65.5 °F 53.4 °F 30.4 in South 2.2 mph 6 mph 65% 0 in 329 W/m2
13:28 66.4 °F 52.5 °F 30.4 in South 4.5 mph 6.9 mph 61% 0 in 354 W/m2
13:33 65.8 °F 52.9 °F 30.4 in South 5.4 mph 7.6 mph 63% 0 in 311 W/m2
13:38 65.7 °F 52.3 °F 30.4 in South 3.8 mph 7.6 mph 62% 0 in 214 W/m2
13:43 65.8 °F 52.5 °F 30.4 in SSW 2.2 mph 7.6 mph 62% 0 in 207 W/m2
14:01 65.3 °F 51.1 °F 30.4 in South 3.8 mph 6.9 mph 60% 0 in 306 W/m2
14:06 65.7 °F 52.7 °F 30.4 in South 3.8 mph 7.6 mph 63% 0 in 292 W/m2
14:11 64.9 °F 51.6 °F 30.4 in South 5.4 mph 7.6 mph 62% 0 in 184 W/m2
14:16 64.9 °F 51.3 °F 30.4 in South 3.8 mph 7.6 mph 61% 0 in 224 W/m2
14:21 65.3 °F 51.4 °F 30.4 in South 5.4 mph 8.3 mph 61% 0 in 190 W/m2
14:26 65.1 °F 52.2 °F 30.4 in South 3.1 mph 8.3 mph 63% 0 in 125 W/m2
14:31 66.6 °F 52.7 °F 30.4 in South 2.2 mph 6.9 mph 61% 0 in 102 W/m2
14:36 67.6 °F 52.3 °F 30.4 in SSE 3.8 mph 6.9 mph 58% 0 in 60 W/m2
14:41 68.7 °F 52.3 °F 30.4 in SSE 1.6 mph 6.9 mph 56% 0 in 59 W/m2
14:51 67.3 °F 52 °F 30.4 in South 3.8 mph 7.6 mph 58% 0 in 60 W/m2
14:56 67.5 °F 52.7 °F 30.4 in South 0.7 mph 6.9 mph 59% 0 in 61 W/m2
15:01 68 °F 51.6 °F 30.4 in SSE 2.2 mph 6 mph 56% 0 in 63 W/m2
15:06 68.4 °F 51.6 °F 30.4 in SSE 2.2 mph 6.9 mph 55% 0 in 83 W/m2
15:11 68.5 °F 51.8 °F 30.4 in SSE 2.2 mph 6.9 mph 55% 0 in 157 W/m2
15:16 68.9 °F 52.5 °F 30.4 in SE 3.1 mph 5.4 mph 56% 0 in 188 W/m2
15:21 68.5 °F 51.8 °F 30.4 in ESE 1.6 mph 5.4 mph 55% 0 in 194 W/m2
15:26 69.4 °F 52.2 °F 30.4 in SE 3.1 mph 5.4 mph 54% 0 in 186 W/m2
15:31 69.1 °F 52.3 °F 30.4 in SE 2.2 mph 5.4 mph 55% 0 in 176 W/m2
15:36 68.7 °F 52 °F 30.4 in SE 0.7 mph 4.5 mph 55% 0 in 166 W/m2
15:41 68.5 °F 51.8 °F 30.4 in SE 2.2 mph 4.5 mph 55% 0 in 156 W/m2
15:46 69.1 °F 52.7 °F 30.4 in Calm   4.5 mph 56% 0 in 144 W/m2
15:51 69.6 °F 53.2 °F 30.4 in SE 3.1 mph 5.4 mph 56% 0 in 132 W/m2
15:56 69.6 °F 52.9 °F 30.4 in SSE 2.2 mph 5.4 mph 55% 0 in 120 W/m2
16:01 69.3 °F 52.3 °F 30.4 in SSE 2.2 mph 5.4 mph 55% 0 in 108 W/m2
16:06 69.3 °F 52.9 °F 30.4 in SSE 1.6 mph 4.5 mph 56% 0 in 97 W/m2
16:11 68.7 °F 52.3 °F 30.4 in SSE 1.6 mph 5.4 mph 56% 0 in 87 W/m2
16:16 68.7 °F 52.9 °F 30.4 in Calm   5.4 mph 57% 0 in 81 W/m2
16:21 69.1 °F 52.7 °F 30.4 in SE 0.7 mph 3.8 mph 56% 0 in 79 W/m2
16:26 68.5 °F 52.2 °F 30.4 in SSE 0.7 mph 4.5 mph 56% 0 in 80 W/m2
16:31 68.4 °F 52.5 °F 30.4 in SSE 0.7 mph 4.5 mph 57% 0 in 81 W/m2
16:36 69.1 °F 53.2 °F 30.4 in SE 0.7 mph 3.8 mph 57% 0 in 66 W/m2
16:41 69.1 °F 52.7 °F 30.4 in Calm   3.8 mph 56% 0 in 56 W/m2
16:46 68.4 °F 52.5 °F 30.4 in Calm   3.8 mph 57% 0 in 50 W/m2
16:51 67.5 °F 53.1 °F 30.4 in Calm   3.1 mph 60% 0 in 44 W/m2
16:56 67.5 °F 53.1 °F 30.4 in Calm   3.1 mph 60% 0 in 40 W/m2
17:01 66.9 °F 52.5 °F 30.4 in Calm   3.8 mph 60% 0 in 34 W/m2
17:06 66.6 °F 52.7 °F 30.4 in Calm   3.8 mph 61% 0 in 28 W/m2
17:11 66.2 °F 52.3 °F 30.4 in Calm     61% 0 in 21 W/m2
17:16 64.6 °F 51.6 °F 30.4 in East 2.2 mph 3.8 mph 63% 0 in 14 W/m2
17:21 61.9 °F 50.4 °F 30.4 in Calm   3.8 mph 66% 0 in 11 W/m2
17:26 60.4 °F 50.2 °F 30.4 in Calm   3.8 mph 69% 0 in 7 W/m2
17:31 59.4 °F 50 °F 30.4 in Calm     71% 0 in 4 W/m2
17:36 58.6 °F 50.4 °F 30.4 in Calm     74% 0 in 1 W/m2
17:41 58.1 °F 50.2 °F 30.4 in Calm     75% 0 in 0 W/m2
17:46 57.4 °F 49.8 °F 30.4 in Calm     76% 0 in 0 W/m2
17:51 56.5 °F 49.6 °F 30.4 in Calm     78% 0 in 0 W/m2
17:56 55.9 °F 49.5 °F 30.4 in Calm     79% 0 in 0 W/m2
18:01 55.2 °F 49.5 °F 30.4 in Calm     81% 0 in 0 W/m2
18:06 54.7 °F 48.9 °F 30.4 in Calm     81% 0 in 0 W/m2
18:11 54.1 °F 48.7 °F 30.4 in Calm     82% 0 in 0 W/m2
18:16 53.8 °F 48.4 °F 30.4 in Calm     82% 0 in 0 W/m2
18:26 53.4 °F 48.7 °F 30.4 in Calm     84% 0 in 0 W/m2
18:31 53.1 °F 48.7 °F 30.4 in Calm     85% 0 in 0 W/m2
18:36 52.5 °F 48 °F 30.4 in Calm     85% 0 in 0 W/m2
18:41 52.2 °F 47.8 °F 30.4 in Calm     85% 0 in 0 W/m2
18:46 52.3 °F 48.4 °F 30.4 in Calm     86% 0 in 0 W/m2
18:51 52.3 °F 48.6 °F 30.4 in Calm     87% 0 in 0 W/m2
18:56 52.3 °F 49.3 °F 30.4 in Calm   1.6 mph 89% 0 in 0 W/m2
19:01 52 °F 49.5 °F 30.4 in Calm   1.6 mph 91% 0 in 0 W/m2
19:06 51.8 °F 49.6 °F 30.4 in Calm   0.7 mph 92% 0 in 0 W/m2
19:11 51.6 °F 50 °F 30.4 in Calm     94% 0 in 0 W/m2
19:16 51.6 °F 50 °F 30.4 in Calm     94% 0 in 0 W/m2
19:21 51.4 °F 50.2 °F 30.4 in Calm     95% 0 in 0 W/m2
19:26 51.3 °F 49.8 °F 30.4 in Calm     95% 0 in 0 W/m2
19:31 51.1 °F 49.6 °F 30.4 in Calm     95% 0 in 0 W/m2
19:36 51.1 °F 50 °F 30.4 in Calm     96% 0 in 0 W/m2
19:41 50.9 °F 49.8 °F 30.4 in Calm     96% 0 in 0 W/m2
19:46 50.7 °F 49.6 °F 30.4 in Calm     96% 0 in 0 W/m2
19:51 50.7 °F 49.6 °F 30.4 in Calm   1.6 mph 96% 0 in 0 W/m2
19:56 50.7 °F 49.8 °F 30.4 in North 0.7 mph 2.2 mph 97% 0 in 0 W/m2
20:01 50.5 °F 49.6 °F 30.4 in Calm   2.2 mph 97% 0 in 0 W/m2
20:06 50.4 °F 49.5 °F 30.4 in Calm   2.2 mph 97% 0 in 0 W/m2
20:11 50.2 °F 49.5 °F 30.4 in Calm   3.1 mph 97% 0 in 0 W/m2
20:16 49.8 °F 49.6 °F 30.4 in NNW 2.2 mph 3.8 mph 99% 0 in 0 W/m2
20:21 49.8 °F 49.6 °F 30.4 in Calm   3.8 mph 99% 0 in 0 W/m2
20:26 49.8 °F 49.6 °F 30.4 in Calm   3.8 mph 99% 0 in 0 W/m2
20:31 49.8 °F 49.6 °F 30.4 in Calm     99% 0 in 0 W/m2
20:36 49.6 °F 49.5 °F 30.4 in Calm     99% 0 in 0 W/m2
20:41 49.6 °F 49.5 °F 30.4 in Calm     99% 0 in 0 W/m2
20:46 49.6 °F 49.5 °F 30.4 in NW 0.7 mph 3.1 mph 99% 0 in 0 W/m2
20:51 49.6 °F 49.5 °F 30.4 in Calm   3.1 mph 99% 0 in 0 W/m2
21:01 49.6 °F 49.5 °F 30.4 in NW 3.1 mph 4.5 mph 99% 0 in 0 W/m2
21:06 49.8 °F 49.6 °F 30.4 in NW 1.6 mph 4.5 mph 99% 0 in 0 W/m2
21:11 49.8 °F 49.6 °F 30.4 in NW 0.7 mph 4.5 mph 99% 0 in 0 W/m2
21:16 49.6 °F 49.5 °F 30.4 in Calm   3.8 mph 99% 0 in 0 W/m2
21:21 49.6 °F 49.5 °F 30.4 in Calm   3.1 mph 99% 0 in 0 W/m2
21:26 49.6 °F 49.5 °F 30.4 in North 1.6 mph 3.8 mph 99% 0 in 0 W/m2
21:31 49.6 °F 49.5 °F 30.4 in NNW 1.6 mph 4.5 mph 99% 0 in 0 W/m2
21:36 49.6 °F 49.5 °F 30.4 in NNW 0.7 mph 4.5 mph 99% 0 in 0 W/m2
21:41 49.5 °F 49.3 °F 30.4 in NNW 0.7 mph 3.8 mph 99% 0 in 0 W/m2
21:46 49.3 °F 48.9 °F 30.4 in Calm   3.1 mph 99% 0 in 0 W/m2
21:51 49.1 °F 48.7 °F 30.4 in NNW 1.6 mph 3.1 mph 99% 0 in 0 W/m2
21:56 49.1 °F 48.7 °F 30.4 in NNW 1.6 mph 3.8 mph 99% 0 in 0 W/m2
22:01 48.9 °F 48.7 °F 30.4 in NNW 3.1 mph 4.5 mph 99% 0 in 0 W/m2
22:06 49.1 °F 48.7 °F 30.4 in NNW 0.7 mph 4.5 mph 99% 0 in 0 W/m2
22:11 49.1 °F 48.7 °F 30.4 in Calm   3.8 mph 99% 0 in 0 W/m2
22:16 49.3 °F 48.9 °F 30.4 in Calm   1.6 mph 99% 0 in 0 W/m2
22:21 49.1 °F 48.7 °F 30.4 in Calm     99% 0 in 0 W/m2
22:26 49.1 °F 48.7 °F 30.4 in Calm     99% 0 in 0 W/m2
22:31 48.7 °F 48.6 °F 30.4 in Calm     99% 0 in 0 W/m2
22:36 48.4 °F 48 °F 30.4 in Calm     99% 0 in 0 W/m2
22:41 48.2 °F 47.8 °F 30.4 in Calm     99% 0 in 0 W/m2
22:46 48.2 °F 47.8 °F 30.4 in Calm     99% 0 in 0 W/m2
22:51 48 °F 47.8 °F 30.4 in Calm     99% 0 in 0 W/m2
22:56 47.8 °F 47.7 °F 30.4 in Calm     99% 0 in 0 W/m2
23:01 47.7 °F 47.5 °F 30.4 in Calm     99% 0 in 0 W/m2
23:06 47.3 °F 46.9 °F 30.4 in Calm     99% 0 in 0 W/m2
23:11 47.5 °F 47.1 °F 30.4 in Calm     99% 0 in 0 W/m2
23:16 47.3 °F 46.9 °F 30.4 in Calm     99% 0 in 0 W/m2
23:21 47.3 °F 46.9 °F 30.4 in Calm     99% 0 in 0 W/m2
23:26 47.5 °F 47.1 °F 30.4 in Calm     99% 0 in 0 W/m2
23:32 47.5 °F 47.1 °F 30.4 in Calm     99% 0 in 0 W/m2
23:37 47.3 °F 46.9 °F 30.4 in NW 3.1 mph 3.8 mph 99% 0 in 0 W/m2
23:42 47.1 °F 46.9 °F 30.4 in Calm   3.8 mph 99% 0 in 0 W/m2
23:47 46.9 °F 46.8 °F 30.4 in Calm   3.8 mph 99% 0 in 0 W/m2
23:52 46.9 °F 46.8 °F 30.4 in NW 2.2 mph 4.5 mph 99% 0 in 0 W/m2
23:57 47.1 °F 46.9 °F 30.4 in NNW 1.6 mph 5.4 mph 99% 0 in 0 W/m2
Northern Hawkes Bay. New Zealand Historic Data
Compliments of Weather Underground - 2 mb